Time;durP1;ratioP1;P1;durP2;ratioP2;P2;SDS_P1;SDS_P2;PMS_P1;PMS_P2;Temp;Humidity;BMP_temperature;BMP_pressure;BME280_temperature;BME280_humidity;BME280_pressure;Samples;Min_cycle;Max_cycle;Signal;HPM_P1;HPM_P2
2024/03/11 00:02:20;;;;;;;2.90;2.60;;;9.00;1.00;;;;;;5080774;28;20187;-41
2024/03/11 00:04:46;;;;;;;3.30;2.63;;;9.00;1.00;;;;;;5098679;28;20219;-41
2024/03/11 00:07:15;;;;;;;3.47;3.17;;;8.90;1.00;;;;;;5081114;28;20422;-43
2024/03/11 00:09:48;;;;;;;3.20;3.00;;;8.90;1.00;;;;;;5098742;28;20820;-43
2024/03/11 00:12:22;;;;;;;2.50;2.30;;;8.90;1.00;;;;;;5099609;28;20431;-43
2024/03/11 00:14:50;;;;;;;3.13;2.93;;;8.90;1.00;;;;;;5082557;28;20756;-41
2024/03/11 00:17:16;;;;;;;3.63;3.33;;;8.90;1.00;;;;;;5081965;28;20529;-42
2024/03/11 00:19:42;;;;;;;2.90;2.70;;;8.90;1.00;;;;;;5081841;28;20450;-41
2024/03/11 00:22:08;;;;;;;2.63;2.43;;;8.90;1.00;;;;;;5099452;28;20418;-42
2024/03/11 00:24:34;;;;;;;2.80;2.53;;;8.90;1.00;;;;;;5080849;28;20200;-42
2024/03/11 00:27:02;;;;;;;2.90;2.70;;;8.90;1.00;;;;;;5080164;28;20181;-40
2024/03/11 00:29:28;;;;;;;2.97;2.77;;;8.90;1.00;;;;;;5080849;28;20911;-40
2024/03/11 00:31:55;;;;;;;5.00;3.13;;;8.80;1.00;;;;;;5098952;28;20837;-42
2024/03/11 00:34:20;;;;;;;3.20;2.90;;;8.80;1.00;;;;;;5099479;28;20431;-41
2024/03/11 00:36:48;;;;;;;3.17;2.87;;;8.80;1.00;;;;;;5080783;28;20539;-43
2024/03/11 00:39:15;;;;;;;3.27;2.97;;;8.80;1.00;;;;;;5098132;28;20278;-42
2024/03/11 00:41:41;;;;;;;3.27;2.97;;;8.80;1.00;;;;;;5098914;28;20457;-42
2024/03/11 00:44:06;;;;;;;3.70;3.00;;;8.70;1.00;;;;;;5098430;28;20762;-40
2024/03/11 00:46:32;;;;;;;3.40;2.80;;;8.70;1.00;;;;;;5063900;28;20539;-41
2024/03/11 00:48:58;;;;;;;2.70;1.90;;;8.70;1.00;;;;;;5098657;28;20168;-42
2024/03/11 00:51:24;;;;;;;3.03;2.50;;;9.00;1.00;;;;;;5098554;28;20548;-41
2024/03/11 00:53:50;;;;;;;2.40;2.20;;;9.70;1.00;;;;;;5098237;28;20418;-39
2024/03/11 00:56:19;;;;;;;2.17;1.97;;;10.40;1.00;;;;;;5098175;28;20426;-41
2024/03/11 00:58:45;;;;;;;1.60;1.50;;;11.10;99.90;;;;;;5098368;28;20514;-41
2024/03/11 01:01:11;;;;;;;2.20;2.00;;;11.80;99.90;;;;;;5098130;28;20426;-47
2024/03/11 01:03:37;;;;;;;1.93;1.60;;;12.30;1.00;;;;;;5097456;28;20410;-40
2024/03/11 01:06:04;;;;;;;2.17;1.60;;;12.80;99.90;;;;;;5097477;28;20208;-40
2024/03/11 01:08:30;;;;;;;1.40;1.30;;;13.20;99.90;;;;;;5097176;28;20520;-42
2024/03/11 01:10:56;;;;;;;2.43;1.50;;;13.50;1.00;;;;;;5097870;28;20446;-43
2024/03/11 01:13:22;;;;;;;2.90;2.13;;;13.70;1.00;;;;;;5079798;28;20266;-41
2024/03/11 01:15:48;;;;;;;2.10;1.63;;;13.60;1.00;;;;;;5080012;28;20418;-42
2024/03/11 01:18:14;;;;;;;2.07;1.90;;;13.00;1.00;;;;;;5098042;28;20476;-42
2024/03/11 01:20:46;;;;;;;2.10;1.90;;;12.40;1.00;;;;;;5097657;28;20418;-42
2024/03/11 01:23:12;;;;;;;2.10;1.90;;;11.80;7.40;;;;;;5097546;28;20192;-42
2024/03/11 01:25:37;;;;;;;2.30;2.10;;;11.30;99.90;;;;;;5096437;28;20971;-41
2024/03/11 01:28:07;;;;;;;2.20;2.00;;;10.90;99.90;;;;;;5096443;28;20179;-41
2024/03/11 01:30:34;;;;;;;2.37;2.17;;;10.50;5.50;;;;;;5079532;28;20582;-41
2024/03/11 01:33:02;;;;;;;1.67;1.50;;;10.20;99.90;;;;;;5096862;28;20429;-42
2024/03/11 01:35:28;;;;;;;2.40;2.00;;;10.00;29.70;;;;;;5096075;28;20457;-42
2024/03/11 01:37:53;;;;;;;1.90;1.77;;;9.70;1.00;;;;;;5096319;28;20426;-41
2024/03/11 01:40:19;;;;;;;2.10;1.90;;;9.50;99.90;;;;;;5098130;28;20267;-41
2024/03/11 01:42:46;;;;;;;1.93;1.73;;;9.40;99.90;;;;;;5097816;28;20323;-42
2024/03/11 01:45:12;;;;;;;1.77;1.67;;;9.30;1.00;;;;;;5096185;28;20523;-40
2024/03/11 01:47:38;;;;;;;2.20;2.03;;;9.10;1.00;;;;;;5096446;28;20518;-40
2024/03/11 01:50:07;;;;;;;2.07;1.87;;;9.00;36.30;;;;;;5099983;28;20521;-41
2024/03/11 01:52:49;;;;;;;2.33;2.13;;;9.00;99.90;;;;;;5100482;28;20176;-40
2024/03/11 01:55:16;;;;;;;2.10;1.90;;;8.90;99.90;;;;;;5082716;28;20850;-41
2024/03/11 01:57:42;;;;;;;2.63;2.43;;;8.80;99.90;;;;;;5100723;28;20417;-43
2024/03/11 02:00:08;;;;;;;2.53;2.27;;;8.80;99.90;;;;;;5081992;28;20426;-40
2024/03/11 02:02:40;;;;;;;3.43;2.57;;;8.70;99.90;;;;;;5082510;28;20523;-42
2024/03/11 02:05:13;;;;;;;2.13;1.83;;;8.60;99.90;;;;;;5100872;28;20493;-45
2024/03/11 02:07:39;;;;;;;2.10;1.90;;;8.60;99.90;;;;;;5100820;28;20422;-40
2024/03/11 02:10:13;;;;;;;2.40;2.20;;;8.60;99.90;;;;;;5082947;28;20414;-40
2024/03/11 02:12:40;;;;;;;2.10;1.90;;;8.50;99.90;;;;;;5084634;28;20409;-42
2024/03/11 02:15:11;;;;;;;1.70;1.60;;;8.50;99.90;;;;;;5082206;28;20443;-41
2024/03/11 02:17:39;;;;;;;2.40;2.20;;;8.40;99.90;;;;;;5082161;28;20473;-41
2024/03/11 02:20:14;;;;;;;1.93;1.73;;;8.40;99.90;;;;;;5100931;28;20497;-40
2024/03/11 02:22:44;;;;;;;1.90;1.70;;;8.40;99.90;;;;;;5100288;28;20444;-41
2024/03/11 02:25:14;;;;;;;3.53;1.83;;;8.40;99.90;;;;;;5081879;28;20495;-43
2024/03/11 02:27:41;;;;;;;1.93;1.73;;;8.30;99.90;;;;;;5099927;28;20746;-41
2024/03/11 02:30:07;;;;;;;2.53;2.00;;;8.30;99.90;;;;;;5101050;28;20502;-42
2024/03/11 02:32:37;;;;;;;1.87;1.60;;;8.30;99.90;;;;;;5101029;28;20871;-41
2024/03/11 02:35:03;;;;;;;1.70;1.60;;;8.20;1.00;;;;;;5099768;28;20418;-42
2024/03/11 02:37:29;;;;;;;2.13;1.93;;;8.20;1.00;;;;;;5082234;28;20440;-40
2024/03/11 02:39:55;;;;;;;2.13;1.83;;;8.20;1.00;;;;;;5081055;28;20840;-41
2024/03/11 02:42:21;;;;;;;2.13;1.93;;;8.10;1.00;;;;;;5099416;28;20264;-41
2024/03/11 02:44:48;;;;;;;1.80;1.70;;;8.10;1.00;;;;;;5081694;28;21042;-43
2024/03/11 02:47:14;;;;;;;1.90;1.63;;;8.10;1.00;;;;;;5099447;28;20437;-41
2024/03/11 02:49:40;;;;;;;1.30;1.07;;;8.10;1.00;;;;;;5082455;28;20542;-41
2024/03/11 02:52:07;;;;;;;2.27;1.87;;;8.00;1.00;;;;;;5100792;28;20446;-40
2024/03/11 02:54:32;;;;;;;1.40;1.30;;;8.00;1.00;;;;;;5099958;28;20176;-41
2024/03/11 02:56:58;;;;;;;2.67;1.87;;;8.00;1.00;;;;;;5099286;28;20437;-41
2024/03/11 02:59:24;;;;;;;2.10;1.70;;;7.90;1.00;;;;;;5099461;28;20196;-42
2024/03/11 03:01:50;;;;;;;2.40;1.80;;;7.90;1.00;;;;;;5099471;28;20181;-42
2024/03/11 03:04:19;;;;;;;1.60;1.50;;;7.80;1.00;;;;;;5099117;28;20547;-43
2024/03/11 03:06:45;;;;;;;2.80;1.77;;;7.80;1.00;;;;;;5098021;28;20574;-41
2024/03/11 03:09:11;;;;;;;1.70;1.50;;;7.80;1.00;;;;;;5080825;28;20602;-41
2024/03/11 03:11:37;;;;;;;1.67;1.43;;;7.80;1.00;;;;;;5100101;28;20192;-41
2024/03/11 03:14:06;;;;;;;1.23;1.13;;;7.80;1.00;;;;;;5098194;28;20427;-43
2024/03/11 03:16:32;;;;;;;1.77;1.67;;;7.80;1.00;;;;;;5097126;28;20839;-41
2024/03/11 03:18:58;;;;;;;1.83;1.50;;;7.80;1.00;;;;;;5098584;28;20818;-41
2024/03/11 03:21:25;;;;;;;2.10;1.60;;;7.80;1.00;;;;;;5098362;28;20723;-42
2024/03/11 03:23:51;;;;;;;2.07;1.83;;;7.70;1.00;;;;;;5080983;28;20454;-45
2024/03/11 03:26:16;;;;;;;2.67;1.50;;;7.70;1.00;;;;;;5097848;28;20572;-42
2024/03/11 03:28:42;;;;;;;1.70;1.40;;;7.70;1.00;;;;;;5079669;28;20478;-41
2024/03/11 03:31:09;;;;;;;1.53;1.30;;;7.70;1.00;;;;;;5096921;28;20325;-42
2024/03/11 03:33:35;;;;;;;1.60;1.47;;;7.60;1.00;;;;;;5096943;28;20394;-43
2024/03/11 03:36:02;;;;;;;1.37;1.27;;;7.60;1.00;;;;;;5078205;28;20844;-41
2024/03/11 03:38:28;;;;;;;2.27;2.07;;;7.60;1.00;;;;;;5097597;28;20560;-41
2024/03/11 03:40:53;;;;;;;3.10;1.47;;;7.60;1.00;;;;;;5098393;28;20654;-41
2024/03/11 03:43:19;;;;;;;2.30;2.10;;;7.60;1.00;;;;;;5098183;28;20430;-44
2024/03/11 03:45:45;;;;;;;1.43;1.30;;;7.60;1.00;;;;;;5099096;28;20215;-41
2024/03/11 03:48:10;;;;;;;2.97;1.93;;;7.50;1.00;;;;;;5097709;28;20173;-41
2024/03/11 03:50:37;;;;;;;1.63;1.43;;;7.50;1.00;;;;;;5098561;28;20325;-44
2024/03/11 03:53:03;;;;;;;1.57;1.30;;;7.50;1.00;;;;;;5098866;28;20188;-42
2024/03/11 03:56:25;;;;;;;2.57;1.73;;;7.50;1.00;;;;;;5098778;28;20448;-42
2024/03/11 03:58:52;;;;;;;1.27;1.13;;;7.50;99.90;;;;;;5112900;28;20327;-42
2024/03/11 04:01:17;;;;;;;1.47;1.10;;;7.50;99.90;;;;;;5118642;28;20528;-43
2024/03/11 04:03:43;;;;;;;1.60;1.20;;;7.40;99.90;;;;;;5099696;28;20532;-40
2024/03/11 04:06:09;;;;;;;1.73;1.37;;;7.40;99.90;;;;;;5116790;28;20477;-41
2024/03/11 04:08:35;;;;;;;1.70;1.27;;;7.40;99.90;;;;;;5116481;28;20172;-42
2024/03/11 04:11:00;;;;;;;1.37;1.27;;;7.40;99.90;;;;;;5115687;28;20490;-43
2024/03/11 04:13:29;;;;;;;1.43;1.33;;;7.40;99.90;;;;;;5115414;28;20632;-41
2024/03/11 04:15:56;;;;;;;1.50;1.10;;;7.40;99.90;;;;;;5116109;28;20420;-41
2024/03/11 04:18:24;;;;;;;2.20;1.77;;;7.40;99.90;;;;;;5115675;28;20432;-41
2024/03/11 04:20:50;;;;;;;2.23;1.50;;;7.30;99.90;;;;;;5114700;28;20417;-44
2024/03/11 04:23:17;;;;;;;1.47;1.30;;;7.30;99.90;;;;;;5115496;28;20414;-41
2024/03/11 04:25:43;;;;;;;1.77;1.10;;;7.30;99.90;;;;;;5114359;28;20551;-42
2024/03/11 04:28:09;;;;;;;1.60;1.30;;;7.30;99.90;;;;;;5115521;28;20512;-41
2024/03/11 04:30:41;;;;;;;2.20;2.00;;;7.30;99.90;;;;;;5097604;28;20270;-41
2024/03/11 04:33:08;;;;;;;2.70;1.57;;;7.20;99.90;;;;;;5114755;28;20231;-43
2024/03/11 04:35:35;;;;;;;1.87;1.20;;;7.20;99.90;;;;;;5113321;28;20410;-43
2024/03/11 04:38:05;;;;;;;1.33;1.20;;;7.20;99.90;;;;;;5112645;28;20520;-42
2024/03/11 04:40:37;;;;;;;1.93;1.73;;;7.20;99.90;;;;;;5111134;28;20479;-41
2024/03/11 04:43:03;;;;;;;2.13;1.80;;;7.10;99.90;;;;;;5095174;28;20446;-42
2024/03/11 04:45:29;;;;;;;2.07;1.60;;;7.10;99.90;;;;;;5113282;28;20473;-41
2024/03/11 04:47:57;;;;;;;2.40;1.70;;;7.10;99.90;;;;;;5115258;28;20436;-42
2024/03/11 04:50:26;;;;;;;1.70;1.40;;;7.10;99.90;;;;;;5115807;28;20168;-40
2024/03/11 04:52:57;;;;;;;1.80;1.30;;;7.00;99.90;;;;;;5081783;28;20440;-41
2024/03/11 04:55:23;;;;;;;1.90;1.47;;;7.00;99.90;;;;;;5115927;28;20461;-43
2024/03/11 04:57:49;;;;;;;1.63;1.50;;;7.00;99.90;;;;;;5115971;28;20817;-45
2024/03/11 05:00:15;;;;;;;1.57;1.30;;;7.00;99.90;;;;;;5117584;28;20429;-42
2024/03/11 05:02:41;;;;;;;2.13;1.90;;;7.00;99.90;;;;;;5117409;28;20179;-42
2024/03/11 05:05:10;;;;;;;2.40;1.50;;;7.00;99.90;;;;;;5116094;28;20731;-41
2024/03/11 05:07:39;;;;;;;1.70;1.60;;;6.90;99.90;;;;;;5116549;28;20429;-42
2024/03/11 05:10:07;;;;;;;2.30;1.70;;;6.90;99.90;;;;;;5116022;28;20426;-42
2024/03/11 05:12:33;;;;;;;2.10;1.90;;;6.90;99.90;;;;;;5116269;28;20456;-42
2024/03/11 05:14:59;;;;;;;1.97;1.77;;;6.90;99.90;;;;;;5116482;28;20589;-41
2024/03/11 05:17:25;;;;;;;2.17;1.97;;;6.80;99.90;;;;;;5098304;28;20168;-42
2024/03/11 05:19:51;;;;;;;2.07;1.70;;;6.80;99.90;;;;;;5116852;28;20431;-42
2024/03/11 05:22:17;;;;;;;2.90;1.70;;;6.80;77.30;;;;;;5115993;28;20601;-42
2024/03/11 05:24:42;;;;;;;2.40;1.70;;;6.80;77.90;;;;;;5117389;28;20461;-41
2024/03/11 05:27:08;;;;;;;3.00;2.00;;;6.80;59.60;;;;;;5116927;28;20443;-44
2024/03/11 05:29:37;;;;;;;2.00;1.80;;;6.80;74.60;;;;;;5115415;28;20168;-43
2024/03/11 05:32:03;;;;;;;3.50;2.20;;;6.80;56.90;;;;;;5096999;28;20270;-42
2024/03/11 05:34:29;;;;;;;2.07;1.83;;;6.70;58.20;;;;;;5115312;28;20487;-41
2024/03/11 05:36:55;;;;;;;4.00;2.10;;;6.70;56.90;;;;;;5114599;28;20429;-42
2024/03/11 05:39:20;;;;;;;1.90;1.70;;;6.70;67.30;;;;;;5114288;28;20524;-44
2024/03/11 05:41:46;;;;;;;2.03;1.83;;;6.70;91.60;;;;;;5114492;28;20508;-41
2024/03/11 05:44:12;;;;;;;2.37;2.17;;;6.70;99.90;;;;;;5114874;28;20180;-41
2024/03/11 05:46:39;;;;;;;2.13;1.37;;;6.70;99.90;;;;;;5078575;28;20177;-42
2024/03/11 05:49:13;;;;;;;2.53;1.40;;;6.70;99.90;;;;;;5113408;28;20869;-41
2024/03/11 05:51:41;;;;;;;1.87;1.60;;;6.70;88.00;;;;;;5096995;28;20524;-42
2024/03/11 05:54:07;;;;;;;2.17;1.50;;;6.70;93.00;;;;;;5095545;28;20414;-42
2024/03/11 05:56:36;;;;;;;2.30;1.73;;;6.70;57.10;;;;;;5113035;28;20424;-41
2024/03/11 05:59:02;;;;;;;1.50;1.10;;;6.70;99.90;;;;;;5113626;28;20461;-41
2024/03/11 06:01:28;;;;;;;2.37;1.40;;;6.70;99.90;;;;;;5112172;28;20474;-41
2024/03/11 06:03:53;;;;;;;1.80;1.30;;;6.70;99.90;;;;;;5109988;28;20358;-42
2024/03/11 06:06:20;;;;;;;1.37;1.20;;;6.70;99.90;;;;;;5092271;28;20207;-42
2024/03/11 06:08:47;;;;;;;1.37;1.20;;;6.70;99.90;;;;;;5110095;28;20531;-40
2024/03/11 06:11:12;;;;;;;1.97;1.43;;;6.70;99.90;;;;;;5092713;28;20457;-41
2024/03/11 06:13:38;;;;;;;2.10;1.40;;;6.80;99.90;;;;;;5110707;28;20472;-43
2024/03/11 06:16:07;;;;;;;1.90;1.47;;;6.80;99.90;;;;;;5110962;28;20368;-42
2024/03/11 06:18:38;;;;;;;1.83;1.30;;;6.80;99.90;;;;;;5115130;28;20187;-42
2024/03/11 06:21:05;;;;;;;2.67;2.00;;;6.90;99.90;;;;;;5097566;28;20680;-41
2024/03/11 06:23:32;;;;;;;1.80;1.50;;;7.00;99.90;;;;;;5114692;28;20425;-42
2024/03/11 06:25:58;;;;;;;2.03;1.60;;;7.10;99.90;;;;;;5097362;28;20797;-43
2024/03/11 06:28:26;;;;;;;1.60;1.50;;;7.20;99.90;;;;;;5095525;28;20429;-42
2024/03/11 06:30:52;;;;;;;2.63;2.37;;;7.30;99.90;;;;;;5095904;28;20438;-41
2024/03/11 06:33:18;;;;;;;2.20;2.00;;;7.50;99.90;;;;;;5094436;28;20418;-43
2024/03/11 06:35:44;;;;;;;2.37;1.60;;;7.70;99.90;;;;;;5116848;28;20409;-41
2024/03/11 06:38:10;;;;;;;1.90;1.67;;;7.90;99.90;;;;;;5115965;28;20838;-44
2024/03/11 06:40:35;;;;;;;2.30;2.10;;;8.20;12.00;;;;;;5116369;28;20436;-44
2024/03/11 06:43:01;;;;;;;1.53;1.43;;;8.40;1.00;;;;;;5117473;28;20434;-42
2024/03/11 06:45:27;;;;;;;2.10;1.60;;;8.60;1.00;;;;;;5118352;28;20665;-42
2024/03/11 06:47:53;;;;;;;2.00;1.60;;;8.80;99.90;;;;;;5118107;28;20315;-41
2024/03/11 06:50:18;;;;;;;2.80;1.90;;;9.10;1.00;;;;;;5117911;28;20195;-42
2024/03/11 06:52:47;;;;;;;2.20;1.80;;;9.30;99.90;;;;;;5115024;28;20187;-43
2024/03/11 06:55:16;;;;;;;1.70;1.60;;;9.50;1.00;;;;;;5115854;28;20580;-43
2024/03/11 06:57:42;;;;;;;2.10;1.70;;;9.70;58.30;;;;;;5115592;28;20814;-42
2024/03/11 07:00:17;;;;;;;1.67;1.37;;;9.90;1.00;;;;;;5096297;28;20417;-43
2024/03/11 07:02:46;;;;;;;1.70;1.60;;;10.10;99.90;;;;;;5114579;28;20430;-43
2024/03/11 07:05:13;;;;;;;1.77;1.67;;;10.40;1.00;;;;;;5099065;28;20472;-44
2024/03/11 07:07:43;;;;;;;1.90;1.40;;;10.60;51.40;;;;;;5118076;28;20807;-43
2024/03/11 07:10:12;;;;;;;1.70;1.60;;;10.70;1.00;;;;;;5117417;28;20429;-45
2024/03/11 07:12:41;;;;;;;1.93;1.60;;;10.90;99.90;;;;;;5114063;28;20453;-44
2024/03/11 07:15:07;;;;;;;1.93;1.73;;;11.00;99.90;;;;;;5116844;28;20421;-42
2024/03/11 07:17:34;;;;;;;2.90;1.87;;;11.10;5.30;;;;;;5099432;28;20458;-42
2024/03/11 07:19:59;;;;;;;2.10;1.70;;;11.20;1.00;;;;;;5117058;28;20432;-42
2024/03/11 07:22:25;;;;;;;2.10;1.63;;;11.30;1.00;;;;;;5116030;28;20414;-43
2024/03/11 07:24:51;;;;;;;2.20;1.63;;;11.60;1.00;;;;;;5116557;28;20211;-42
2024/03/11 07:27:17;;;;;;;1.73;1.63;;;11.80;1.00;;;;;;5117142;28;20168;-44
2024/03/11 07:29:43;;;;;;;2.43;1.60;;;11.80;99.90;;;;;;5100573;28;20792;-43
2024/03/11 07:32:12;;;;;;;2.00;1.30;;;11.90;99.90;;;;;;5100166;28;20519;-41
2024/03/11 07:34:42;;;;;;;1.80;1.43;;;12.10;99.90;;;;;;5118037;28;20429;-42
2024/03/11 07:37:09;;;;;;;2.07;1.30;;;12.30;99.90;;;;;;5096155;28;20445;-42
2024/03/11 07:39:36;;;;;;;1.80;1.50;;;12.50;99.90;;;;;;5095646;28;20430;-42
2024/03/11 07:42:02;;;;;;;2.67;1.90;;;12.70;99.90;;;;;;5079221;28;20847;-43
2024/03/11 07:44:28;;;;;;;2.00;1.50;;;12.80;85.10;;;;;;5096559;28;20454;-42
2024/03/11 07:46:54;;;;;;;1.90;1.43;;;12.90;50.90;;;;;;5097496;28;20450;-43
2024/03/11 07:49:20;;;;;;;2.13;1.77;;;13.00;23.70;;;;;;5098396;28;20450;-42
2024/03/11 07:51:46;;;;;;;2.23;1.93;;;13.20;14.50;;;;;;5099444;28;20182;-41
2024/03/11 07:54:13;;;;;;;2.13;1.70;;;13.40;1.00;;;;;;5099420;28;20418;-44
2024/03/11 07:56:41;;;;;;;1.90;1.00;;;13.60;1.00;;;;;;5081026;28;20427;-39
2024/03/11 07:59:07;;;;;;;1.47;1.07;;;13.80;1.00;;;;;;5076157;28;20487;-41
2024/03/11 08:01:33;;;;;;;3.43;1.50;;;14.00;1.00;;;;;;5076520;28;20423;-42
2024/03/11 08:03:58;;;;;;;1.70;1.23;;;14.10;1.00;;;;;;5077512;28;20407;-41
2024/03/11 08:06:24;;;;;;;1.90;0.90;;;14.30;1.00;;;;;;5077997;28;20498;-41
2024/03/11 08:08:53;;;;;;;1.40;1.20;;;14.50;1.00;;;;;;5086824;28;20176;-40
2024/03/11 08:11:21;;;;;;;1.93;1.13;;;14.80;1.00;;;;;;5096992;28;20177;-42
2024/03/11 08:13:48;;;;;;;1.50;1.17;;;15.00;1.00;;;;;;5097384;28;20449;-41
2024/03/11 08:16:14;;;;;;;1.70;0.80;;;15.20;1.00;;;;;;5097187;28;20849;-42
2024/03/11 08:18:40;;;;;;;2.10;1.10;;;15.50;1.00;;;;;;5097132;28;20483;-42
2024/03/11 08:21:09;;;;;;;1.57;1.10;;;15.70;1.00;;;;;;5097151;28;20177;-42
2024/03/11 08:23:35;;;;;;;4.20;1.77;;;16.00;1.00;;;;;;5096151;28;20430;-44
2024/03/11 08:26:07;;;;;;;1.67;0.93;;;16.40;1.00;;;;;;5087719;28;20478;-42
2024/03/11 08:28:33;;;;;;;3.83;1.20;;;16.90;1.00;;;;;;5074351;28;20173;-42
2024/03/11 08:30:59;;;;;;;2.43;1.20;;;17.50;1.00;;;;;;5075271;28;20407;-42
2024/03/11 08:33:25;;;;;;;5.77;1.60;;;18.10;1.00;;;;;;5075320;28;20403;-44
2024/03/11 08:35:53;;;;;;;3.07;1.07;;;18.70;1.00;;;;;;5074984;28;20188;-40
2024/03/11 08:38:20;;;;;;;3.97;1.17;;;19.30;1.00;;;;;;5074534;28;20658;-40
2024/03/11 08:40:46;;;;;;;6.13;1.00;;;20.00;1.00;;;;;;5074069;28;20713;-41
2024/03/11 08:43:12;;;;;;;2.40;0.90;;;20.50;1.00;;;;;;5075536;28;20423;-40
2024/03/11 08:45:41;;;;;;;3.83;0.90;;;21.00;1.00;;;;;;5076544;28;20494;-42
2024/03/11 08:48:07;;;;;;;1.90;1.10;;;21.50;1.00;;;;;;5075799;28;20427;-42
2024/03/11 08:50:32;;;;;;;2.13;0.80;;;21.90;1.00;;;;;;5077353;28;20542;-46
2024/03/11 08:53:00;;;;;;;2.27;1.00;;;22.20;1.00;;;;;;5077194;28;20496;-41
2024/03/11 08:55:26;;;;;;;1.77;1.00;;;22.50;1.00;;;;;;5076045;28;20181;-44
2024/03/11 08:57:58;;;;;;;3.67;1.00;;;22.80;1.00;;;;;;5085849;28;20459;-43
2024/03/11 09:00:27;;;;;;;1.60;1.00;;;23.00;1.00;;;;;;5097620;28;20267;-42
2024/03/11 09:02:54;;;;;;;2.70;0.80;;;23.30;99.90;;;;;;5097474;28;20987;-44
2024/03/11 09:05:22;;;;;;;1.60;0.97;;;23.40;99.90;;;;;;5096690;28;20475;-41
2024/03/11 09:07:50;;;;;;;1.50;0.83;;;23.50;99.90;;;;;;5078366;28;20426;-41
2024/03/11 09:10:17;;;;;;;4.97;0.97;;;23.70;99.90;;;;;;5078692;28;20511;-42
2024/03/11 09:12:46;;;;;;;2.37;0.90;;;23.90;99.90;;;;;;5077991;28;20418;-42
2024/03/11 09:15:16;;;;;;;1.60;1.00;;;24.00;99.90;;;;;;5102129;28;20440;-42
2024/03/11 09:17:47;;;;;;;2.60;1.53;;;24.10;99.90;;;;;;5098424;28;20444;-43
2024/03/11 09:20:17;;;;;;;1.20;0.80;;;24.40;99.90;;;;;;5116079;28;20735;-42
2024/03/11 09:22:47;;;;;;;2.47;1.20;;;24.70;99.90;;;;;;5116233;28;20414;-43
2024/03/11 09:25:17;;;;;;;1.33;0.70;;;24.90;99.90;;;;;;5115428;28;20731;-41
2024/03/11 09:27:47;;;;;;;1.97;0.93;;;25.00;99.90;;;;;;5096924;28;20827;-42
2024/03/11 09:30:14;;;;;;;1.30;0.70;;;25.20;99.90;;;;;;5114440;28;20425;-43
2024/03/11 09:32:42;;;;;;;2.30;0.70;;;25.40;99.90;;;;;;5098108;28;20723;-44
2024/03/11 09:35:09;;;;;;;1.33;0.73;;;25.60;99.90;;;;;;5115166;28;20448;-41
2024/03/11 09:37:35;;;;;;;1.27;0.87;;;25.90;99.90;;;;;;5109497;28;20452;-42
2024/03/11 09:40:09;;;;;;;1.00;0.50;;;26.10;99.90;;;;;;5115432;28;20437;-45
2024/03/11 09:42:36;;;;;;;1.53;0.63;;;26.20;99.90;;;;;;5117153;28;20572;-43
2024/03/11 09:45:07;;;;;;;2.40;1.13;;;26.30;99.90;;;;;;5096049;28;20476;-46
2024/03/11 09:47:35;;;;;;;2.77;0.90;;;26.50;99.90;;;;;;5114761;28;20487;-46
2024/03/11 09:50:01;;;;;;;3.43;0.90;;;26.70;99.90;;;;;;5115543;28;20425;-47
2024/03/11 09:52:29;;;;;;;2.23;0.90;;;27.00;99.90;;;;;;5112214;28;20417;-46
2024/03/11 09:54:55;;;;;;;6.40;1.00;;;27.00;99.90;;;;;;5112024;28;20164;-45
2024/03/11 09:57:26;;;;;;;3.10;1.10;;;27.10;99.90;;;;;;5112924;28;20523;-45
2024/03/11 09:59:54;;;;;;;1.57;0.80;;;27.20;99.90;;;;;;5112606;28;20696;-44
2024/03/11 10:02:21;;;;;;;1.20;0.80;;;27.30;99.90;;;;;;5095279;28;20806;-47
2024/03/11 10:04:51;;;;;;;1.50;0.70;;;27.60;99.90;;;;;;5078318;28;21089;-45
2024/03/11 10:07:17;;;;;;;1.53;0.80;;;27.70;99.90;;;;;;5113677;28;20780;-46
2024/03/11 10:09:45;;;;;;;1.30;0.90;;;28.00;99.90;;;;;;5096338;28;20474;-48
2024/03/11 10:12:15;;;;;;;1.50;0.87;;;28.30;99.90;;;;;;5100531;28;20211;-47
2024/03/11 10:14:42;;;;;;;1.43;0.67;;;28.40;99.90;;;;;;5081201;28;20418;-45
2024/03/11 10:17:17;;;;;;;2.60;1.23;;;28.30;99.90;;;;;;5098345;28;20412;-45
2024/03/11 10:19:48;;;;;;;1.60;1.00;;;28.40;99.90;;;;;;5080552;28;20846;-46
2024/03/11 10:22:24;;;;;;;2.20;0.90;;;28.50;99.90;;;;;;5099172;28;20814;-46
2024/03/11 10:24:56;;;;;;;2.00;0.90;;;28.60;99.90;;;;;;5079261;28;20542;-47
2024/03/11 10:27:32;;;;;;;1.10;0.80;;;28.30;99.90;;;;;;5098160;28;20442;-46
2024/03/11 10:30:19;;;;;;;2.20;0.80;;;28.10;99.90;;;;;;5097559;28;20449;-42
2024/03/11 10:32:45;;;;;;;1.87;0.70;;;28.20;99.90;;;;;;5098586;28;20673;-46
2024/03/11 10:35:20;;;;;;;1.83;1.00;;;28.50;99.90;;;;;;5080004;28;20672;-44
2024/03/11 10:37:46;;;;;;;1.57;1.03;;;28.80;99.90;;;;;;5078925;28;20722;-43
2024/03/11 10:40:19;;;;;;;1.40;0.97;;;29.00;99.90;;;;;;5097440;28;20842;-45
2024/03/11 10:42:54;;;;;;;1.43;0.83;;;29.30;99.90;;;;;;5099072;28;20472;-45
2024/03/11 10:45:32;;;;;;;2.10;0.97;;;29.60;99.90;;;;;;5065199;28;20526;-47
2024/03/11 10:48:00;;;;;;;2.50;1.30;;;29.90;99.90;;;;;;5063196;28;20419;-45
2024/03/11 10:50:32;;;;;;;1.07;0.60;;;30.10;99.90;;;;;;5081151;28;20456;-44
2024/03/11 10:52:59;;;;;;;1.63;0.80;;;30.60;99.90;;;;;;5099060;28;20464;-45
2024/03/11 10:55:34;;;;;;;1.30;0.70;;;30.70;99.90;;;;;;5098585;28;20952;-45
2024/03/11 10:58:01;;;;;;;1.40;1.03;;;30.10;99.90;;;;;;5076516;28;20437;-45
2024/03/11 11:00:33;;;;;;;1.67;0.90;;;29.50;99.90;;;;;;5077026;28;20426;-44
2024/03/11 11:03:07;;;;;;;1.70;0.87;;;29.10;99.90;;;;;;5076344;28;20453;-42
2024/03/11 11:05:42;;;;;;;1.87;0.70;;;28.90;99.90;;;;;;5077940;28;20607;-45
2024/03/11 11:08:12;;;;;;;1.40;0.73;;;29.10;99.90;;;;;;5074845;28;20685;-43
2024/03/11 11:10:41;;;;;;;1.30;0.70;;;29.20;99.90;;;;;;5072792;28;20418;-45
2024/03/11 11:13:07;;;;;;;1.20;0.60;;;29.10;99.90;;;;;;5073975;28;20421;-46
2024/03/11 11:15:36;;;;;;;2.60;0.87;;;29.50;99.90;;;;;;5074330;28;20455;-44
2024/03/11 11:18:13;;;;;;;2.33;1.23;;;30.10;99.90;;;;;;5075429;28;20398;-43
2024/03/11 11:20:42;;;;;;;2.27;0.70;;;30.80;99.90;;;;;;5074447;28;20694;-45
2024/03/11 11:23:10;;;;;;;1.70;0.70;;;31.50;99.90;;;;;;5076948;28;20405;-47
2024/03/11 11:25:40;;;;;;;1.80;1.00;;;31.10;99.90;;;;;;5076755;28;20718;-46
2024/03/11 11:28:13;;;;;;;1.80;0.70;;;30.50;99.90;;;;;;5077701;28;20389;-44
2024/03/11 11:30:43;;;;;;;1.00;0.60;;;29.70;99.90;;;;;;5077032;28;20447;-43
2024/03/11 11:33:12;;;;;;;1.37;0.80;;;29.70;99.90;;;;;;5075506;28;20492;-45
2024/03/11 11:35:44;;;;;;;1.57;0.70;;;29.80;99.90;;;;;;5075670;28;20439;-44
2024/03/11 11:38:24;;;;;;;1.30;0.80;;;29.70;99.90;;;;;;5076287;28;20488;-46
2024/03/11 11:40:53;;;;;;;1.57;0.80;;;29.40;99.90;;;;;;5076570;28;20496;-48
2024/03/11 11:43:41;;;;;;;2.13;0.70;;;29.10;99.90;;;;;;5074045;28;20411;-45
2024/03/11 11:46:09;;;;;;;1.77;0.70;;;28.80;99.90;;;;;;5073387;28;20664;-44
2024/03/11 11:48:37;;;;;;;2.73;0.77;;;28.30;99.90;;;;;;5081042;28;20401;-44
2024/03/11 11:51:03;;;;;;;1.23;0.90;;;27.90;99.90;;;;;;5096745;28;20814;-44
2024/03/11 11:53:35;;;;;;;2.23;0.93;;;27.30;99.90;;;;;;5096425;28;20495;-47
2024/03/11 11:56:01;;;;;;;1.67;0.90;;;27.00;99.90;;;;;;5096967;28;20525;-46
2024/03/11 11:58:27;;;;;;;1.30;0.73;;;26.50;99.90;;;;;;5110252;28;20443;-46
2024/03/11 12:01:01;;;;;;;3.30;0.80;;;26.40;99.90;;;;;;5116557;28;20175;-45
2024/03/11 12:03:31;;;;;;;1.33;0.73;;;26.20;99.90;;;;;;5116609;28;20471;-43
2024/03/11 12:06:04;;;;;;;1.50;0.53;;;26.00;99.90;;;;;;5116588;28;20666;-44
2024/03/11 12:08:33;;;;;;;1.20;0.70;;;25.80;99.90;;;;;;5115970;28;20437;-43
2024/03/11 12:11:10;;;;;;;1.03;0.60;;;25.60;99.90;;;;;;5116773;28;20396;-47
2024/03/11 12:13:46;;;;;;;1.50;0.60;;;25.40;99.90;;;;;;5098364;28;20543;-46
2024/03/11 12:16:20;;;;;;;1.40;0.70;;;25.70;99.90;;;;;;5115310;28;20435;-45
2024/03/11 12:19:00;;;;;;;1.40;0.90;;;26.60;99.90;;;;;;5115216;28;20596;-44
2024/03/11 12:21:28;;;;;;;1.10;0.50;;;27.30;99.90;;;;;;5095340;28;20492;-45
2024/03/11 12:23:54;;;;;;;1.10;0.57;;;27.90;99.90;;;;;;5115040;28;20491;-46
2024/03/11 12:26:21;;;;;;;1.87;0.60;;;27.70;99.90;;;;;;5113280;28;20404;-47
2024/03/11 12:29:06;;;;;;;2.00;0.77;;;27.40;99.90;;;;;;5112680;28;20808;-47
2024/03/11 12:31:34;;;;;;;2.00;0.80;;;27.90;99.90;;;;;;5111972;28;20392;-44
2024/03/11 12:34:10;;;;;;;1.50;0.60;;;28.40;99.90;;;;;;5112378;28;20401;-48
2024/03/11 12:36:40;;;;;;;1.77;0.97;;;28.20;99.90;;;;;;5109807;28;20456;-44
2024/03/11 12:39:33;;;;;;;1.50;0.53;;;27.80;99.90;;;;;;5096455;28;20938;-48
2024/03/11 12:41:59;;;;;;;2.23;0.60;;;27.20;99.90;;;;;;5100970;28;20469;-44
2024/03/11 12:44:26;;;;;;;1.50;0.70;;;26.60;99.90;;;;;;5114882;28;20921;-43
2024/03/11 12:46:53;;;;;;;1.40;0.70;;;26.20;99.90;;;;;;5116112;28;20220;-46
2024/03/11 12:49:20;;;;;;;1.30;0.70;;;25.70;99.90;;;;;;5115186;28;20410;-45
2024/03/11 12:51:53;;;;;;;1.47;0.77;;;25.30;99.90;;;;;;5096958;28;20814;-46
2024/03/11 12:54:22;;;;;;;4.03;0.80;;;25.30;99.90;;;;;;5115016;28;21014;-44
2024/03/11 12:57:14;;;;;;;1.77;0.60;;;25.60;99.90;;;;;;5114629;28;20425;-44
2024/03/11 12:59:59;;;;;;;0.90;0.40;;;25.90;99.90;;;;;;5116237;28;20404;-46
2024/03/11 13:02:26;;;;;;;1.10;0.60;;;26.20;99.90;;;;;;5115909;28;20420;-47